Time;durP1;ratioP1;P1;durP2;ratioP2;P2;SDS_P1;SDS_P2;PMS_P1;PMS_P2;Temp;Humidity;BMP_temperature;BMP_pressure;BME280_temperature;BME280_humidity;BME280_pressure;Samples;Min_cycle;Max_cycle;Signal;HPM_P1;HPM_P2
2023/04/11 00:02:18;;;;;;;6.82;1.33;;;8.90;99.90;;;;;;5018649;28;20047;-72
2023/04/11 00:04:46;;;;;;;9.20;1.20;;;9.10;99.90;;;;;;5017069;28;20069;-73
2023/04/11 00:07:14;;;;;;;8.30;1.27;;;8.90;99.90;;;;;;5019762;28;20474;-73
2023/04/11 00:09:40;;;;;;;6.25;1.60;;;8.90;99.90;;;;;;5021626;28;21229;-73
2023/04/11 00:12:06;;;;;;;6.23;1.33;;;8.80;99.90;;;;;;5021922;28;20492;-73
2023/04/11 00:14:33;;;;;;;6.47;1.55;;;8.80;99.90;;;;;;4998379;28;20419;-73
2023/04/11 00:16:59;;;;;;;9.02;1.58;;;8.70;99.90;;;;;;5002588;28;20044;-73
2023/04/11 00:19:27;;;;;;;11.18;1.63;;;8.70;99.90;;;;;;5017038;28;20067;-73
2023/04/11 00:22:03;;;;;;;12.20;1.83;;;8.70;99.90;;;;;;5016953;28;20156;-73
2023/04/11 00:24:29;;;;;;;8.50;1.60;;;8.60;99.90;;;;;;5021254;28;20045;-73
2023/04/11 00:26:56;;;;;;;16.10;2.78;;;8.60;99.90;;;;;;5018879;28;20049;-73
2023/04/11 00:29:23;;;;;;;10.55;2.10;;;8.60;99.90;;;;;;5011819;28;20128;-73
2023/04/11 00:31:51;;;;;;;15.27;2.60;;;8.60;99.90;;;;;;5023966;28;20086;-72
2023/04/11 00:34:17;;;;;;;9.48;2.15;;;8.60;99.90;;;;;;5018748;28;20045;-73
2023/04/11 00:36:42;;;;;;;15.07;2.30;;;8.60;99.90;;;;;;5033163;28;20064;-73
2023/04/11 00:39:08;;;;;;;10.00;1.93;;;8.50;99.90;;;;;;5021443;28;20692;-73
2023/04/11 00:41:37;;;;;;;13.43;2.13;;;8.50;99.90;;;;;;5035118;28;20044;-73
2023/04/11 00:44:02;;;;;;;8.63;1.80;;;8.50;99.90;;;;;;5024484;28;20432;-73
2023/04/11 00:46:31;;;;;;;6.83;1.40;;;8.40;99.90;;;;;;5021788;28;20040;-73
2023/04/11 00:49:00;;;;;;;8.90;1.73;;;8.30;99.90;;;;;;5019157;28;20037;-74
2023/04/11 00:51:26;;;;;;;4.97;1.00;;;8.30;99.90;;;;;;5022914;28;20048;-73
2023/04/11 00:53:52;;;;;;;8.55;1.20;;;8.30;99.90;;;;;;5041376;28;20043;-73
2023/04/11 00:56:17;;;;;;;8.10;1.35;;;8.30;99.90;;;;;;5019843;28;20041;-74
2023/04/11 00:58:43;;;;;;;9.20;1.20;;;8.20;99.90;;;;;;5021934;28;20658;-74
2023/04/11 01:01:11;;;;;;;5.50;1.00;;;8.20;99.90;;;;;;5017172;28;20037;-74
2023/04/11 01:03:38;;;;;;;4.90;1.65;;;8.10;99.90;;;;;;5021119;28;20044;-73
2023/04/11 01:06:05;;;;;;;;;;;8.20;99.90;;;;;;5025087;28;20033;-74
2023/04/11 01:08:32;;;;;;;4.50;1.25;;;8.20;99.90;;;;;;5016695;28;19917;-73
2023/04/11 01:11:00;;;;;;;2.67;1.35;;;8.10;99.90;;;;;;5021300;28;20041;-73
2023/04/11 01:13:26;;;;;;;7.72;0.90;;;8.10;99.90;;;;;;5023113;28;20079;-73
2023/04/11 01:15:52;;;;;;;4.75;0.60;;;8.20;99.90;;;;;;5007561;28;20057;-73
2023/04/11 01:18:17;;;;;;;5.07;0.80;;;8.10;99.90;;;;;;5018607;28;20553;-73
2023/04/11 01:20:43;;;;;;;6.00;1.10;;;8.20;99.90;;;;;;5021735;28;20045;-73
2023/04/11 01:23:10;;;;;;;8.30;1.33;;;8.10;99.90;;;;;;5036612;28;20045;-74
2023/04/11 01:25:35;;;;;;;;;;;8.10;99.90;;;;;;5036564;28;20076;-73
2023/04/11 01:28:02;;;;;;;4.35;0.68;;;8.10;99.90;;;;;;5016248;28;19964;-74
2023/04/11 01:30:27;;;;;;;;;;;8.00;99.90;;;;;;5032399;28;20090;-73
2023/04/11 01:32:56;;;;;;;2.63;0.30;;;8.00;99.90;;;;;;5022185;28;19917;-74
2023/04/11 01:35:22;;;;;;;2.70;0.30;;;8.00;99.90;;;;;;5022934;28;20511;-73
2023/04/11 01:37:47;;;;;;;1.30;0.53;;;8.00;99.90;;;;;;5018667;28;20038;-73
2023/04/11 01:40:20;;;;;;;2.90;0.63;;;7.90;99.90;;;;;;5019610;28;20055;-73
2023/04/11 01:42:46;;;;;;;6.00;0.57;;;7.90;99.90;;;;;;5003622;28;20128;-73
2023/04/11 01:45:12;;;;;;;6.18;0.60;;;7.90;99.90;;;;;;5021522;28;20044;-73
2023/04/11 01:47:38;;;;;;;0.97;0.50;;;7.90;99.90;;;;;;5014046;28;20142;-74
2023/04/11 01:50:05;;;;;;;3.73;0.40;;;7.90;99.90;;;;;;5020892;28;20648;-73
2023/04/11 01:52:31;;;;;;;2.75;0.50;;;7.90;99.90;;;;;;5000091;28;20070;-73
2023/04/11 01:55:02;;;;;;;3.70;0.30;;;7.90;99.90;;;;;;5037787;28;20044;-73
2023/04/11 01:57:27;;;;;;;0.43;0.10;;;7.90;99.90;;;;;;5019376;28;20089;-73
2023/04/11 01:59:53;;;;;;;0.57;0.40;;;7.90;99.90;;;;;;5021123;28;20482;-73
2023/04/11 02:02:19;;;;;;;1.80;0.57;;;7.90;99.90;;;;;;5011387;28;20166;-74
2023/04/11 02:07:16;;;;;;;0.90;0.40;;;7.90;99.90;;;;;;5033431;28;20044;-69
2023/04/11 02:09:42;;;;;;;3.07;0.30;;;7.90;99.90;;;;;;5037339;28;20040;-69
2023/04/11 02:12:07;;;;;;;2.90;0.40;;;7.90;99.90;;;;;;5042283;28;20501;-69
2023/04/11 02:14:41;;;;;;;0.95;0.30;;;7.90;99.90;;;;;;5020478;28;20045;-68
2023/04/11 02:17:08;;;;;;;3.17;0.50;;;7.90;99.90;;;;;;5020338;28;20311;-76
2023/04/11 02:19:40;;;;;;;1.10;0.45;;;7.90;99.90;;;;;;5016967;28;20053;-76
2023/04/11 02:22:09;;;;;;;0.45;0.30;;;7.90;99.90;;;;;;5032698;28;20545;-68
2023/04/11 02:24:35;;;;;;;1.77;0.40;;;7.90;99.90;;;;;;5035114;28;20043;-70
2023/04/11 02:27:02;;;;;;;4.22;0.85;;;7.90;99.90;;;;;;5034417;28;20434;-71
2023/04/11 02:29:28;;;;;;;;;;;7.90;99.90;;;;;;5040279;28;20183;-70
2023/04/11 02:31:54;;;;;;;5.15;0.50;;;7.90;99.90;;;;;;5037881;28;20224;-70
2023/04/11 02:34:19;;;;;;;0.88;0.40;;;7.90;99.90;;;;;;5029612;28;20055;-69
2023/04/11 02:36:45;;;;;;;2.43;0.70;;;7.90;99.90;;;;;;5030203;28;20045;-69
2023/04/11 02:39:13;;;;;;;4.00;0.60;;;7.90;99.90;;;;;;5037309;28;20068;-70
2023/04/11 02:41:42;;;;;;;5.85;0.77;;;7.90;99.90;;;;;;5030974;28;20850;-69
2023/04/11 02:44:10;;;;;;;1.33;0.52;;;7.90;99.90;;;;;;5038099;28;20100;-69
2023/04/11 02:46:36;;;;;;;2.30;0.60;;;7.90;99.90;;;;;;5041748;28;20132;-69
2023/04/11 02:49:02;;;;;;;6.43;0.70;;;7.90;99.90;;;;;;5042615;28;20123;-69
2023/04/11 02:51:28;;;;;;;2.65;0.70;;;7.90;99.90;;;;;;5031765;28;20417;-69
2023/04/11 02:53:54;;;;;;;1.97;0.70;;;7.90;99.90;;;;;;5040020;28;20449;-69
2023/04/11 02:56:20;;;;;;;1.73;0.50;;;7.90;99.90;;;;;;5021301;28;20280;-69
2023/04/11 02:58:46;;;;;;;1.73;0.60;;;7.90;99.90;;;;;;5040203;28;20057;-69
2023/04/11 03:01:13;;;;;;;2.10;1.13;;;7.90;99.90;;;;;;5041412;28;20048;-68
2023/04/11 03:03:43;;;;;;;3.75;0.93;;;7.90;99.90;;;;;;5038867;28;20174;-68
2023/04/11 03:06:08;;;;;;;5.57;0.70;;;8.00;99.90;;;;;;5038778;28;20037;-68
2023/04/11 03:08:35;;;;;;;2.83;0.90;;;8.00;99.90;;;;;;5040548;28;20095;-69
2023/04/11 03:11:01;;;;;;;4.72;0.90;;;8.00;99.90;;;;;;5041527;28;20157;-68
2023/04/11 03:13:27;;;;;;;5.38;1.08;;;8.00;99.90;;;;;;5036879;28;20049;-68
2023/04/11 03:15:53;;;;;;;11.05;1.02;;;8.10;99.90;;;;;;5042462;28;20047;-68
2023/04/11 03:18:21;;;;;;;4.38;0.80;;;8.00;99.90;;;;;;5037701;28;20036;-68
2023/04/11 03:20:47;;;;;;;6.60;0.80;;;8.10;99.90;;;;;;5033919;28;20049;-68
2023/04/11 03:23:15;;;;;;;7.40;1.90;;;8.10;99.90;;;;;;5039948;28;20183;-68
2023/04/11 03:25:43;;;;;;;8.60;0.98;;;8.10;99.90;;;;;;5040586;28;20056;-68
2023/04/11 03:28:12;;;;;;;6.57;1.25;;;8.20;99.90;;;;;;5037421;28;20045;-68
2023/04/11 03:30:39;;;;;;;4.75;1.02;;;8.20;99.90;;;;;;5036132;28;20526;-68
2023/04/11 03:33:06;;;;;;;9.65;1.70;;;8.20;99.90;;;;;;5034020;28;20122;-68
2023/04/11 03:35:32;;;;;;;9.52;1.10;;;8.20;99.90;;;;;;5036539;28;20682;-68
2023/04/11 03:37:57;;;;;;;7.57;1.20;;;8.20;99.90;;;;;;5032267;28;20123;-68
2023/04/11 03:40:24;;;;;;;2.97;0.70;;;8.30;99.90;;;;;;5041588;28;20028;-68
2023/04/11 03:42:49;;;;;;;8.23;0.93;;;8.30;99.90;;;;;;5030557;28;20434;-68
2023/04/11 03:45:16;;;;;;;3.57;0.87;;;8.20;99.90;;;;;;5034956;28;20158;-68
2023/04/11 03:47:41;;;;;;;8.60;1.23;;;8.30;99.90;;;;;;5029252;28;20067;-68
2023/04/11 03:50:07;;;;;;;2.93;0.80;;;8.40;99.90;;;;;;5045773;28;20045;-68
2023/04/11 03:52:33;;;;;;;3.75;0.93;;;8.30;99.90;;;;;;5040607;28;20033;-68
2023/04/11 03:54:59;;;;;;;10.13;1.55;;;8.30;99.90;;;;;;5034459;28;20083;-69
2023/04/11 03:57:28;;;;;;;7.13;1.37;;;8.30;99.90;;;;;;5039982;28;20147;-68
2023/04/11 03:59:55;;;;;;;5.15;1.20;;;8.30;99.90;;;;;;5039452;28;20115;-68
2023/04/11 04:02:20;;;;;;;;;;;8.30;99.90;;;;;;5039853;28;20664;-68
2023/04/11 04:04:49;;;;;;;9.15;1.90;;;8.30;99.90;;;;;;5039484;28;19917;-68
2023/04/11 04:07:16;;;;;;;5.30;1.30;;;8.20;99.90;;;;;;5039761;28;20277;-68
2023/04/11 04:09:45;;;;;;;6.88;1.85;;;8.20;99.90;;;;;;5045000;28;20131;-68
2023/04/11 04:12:11;;;;;;;4.00;1.20;;;8.20;99.90;;;;;;5038886;28;20202;-68
2023/04/11 04:14:37;;;;;;;4.63;1.30;;;8.20;99.90;;;;;;5034712;28;20526;-68
2023/04/11 04:17:03;;;;;;;5.40;1.48;;;8.20;99.90;;;;;;5035114;28;20382;-68
2023/04/11 04:19:30;;;;;;;3.67;1.07;;;8.20;99.90;;;;;;5037882;28;20047;-68
2023/04/11 04:21:57;;;;;;;3.35;1.50;;;8.20;99.90;;;;;;5040416;28;20078;-68
2023/04/11 04:24:25;;;;;;;5.85;1.40;;;8.20;99.90;;;;;;5035823;28;20041;-68
2023/04/11 04:26:52;;;;;;;8.93;2.15;;;8.10;99.90;;;;;;5037999;28;20041;-67
2023/04/11 04:29:20;;;;;;;3.42;1.27;;;8.10;99.90;;;;;;5036084;28;20032;-67
2023/04/11 04:31:49;;;;;;;5.57;1.45;;;8.10;99.90;;;;;;5032006;28;20052;-68
2023/04/11 04:34:20;;;;;;;9.63;1.10;;;8.00;99.90;;;;;;5028038;28;20041;-68
2023/04/11 04:36:47;;;;;;;7.88;1.63;;;8.00;99.90;;;;;;5033990;28;20040;-78
2023/04/11 04:39:17;;;;;;;5.53;0.88;;;8.10;99.90;;;;;;5041516;28;20506;-69
2023/04/11 04:41:56;;;;;;;6.97;1.08;;;8.00;99.90;;;;;;5038151;28;20037;-68
2023/04/11 04:44:23;;;;;;;6.07;1.00;;;8.00;99.90;;;;;;5037903;28;20067;-69
2023/04/11 04:46:55;;;;;;;;;;;8.00;99.90;;;;;;5038769;28;20109;-70
2023/04/11 04:49:21;;;;;;;3.67;1.00;;;7.90;99.90;;;;;;5035364;28;19927;-74
2023/04/11 04:51:47;;;;;;;4.43;1.05;;;7.90;99.90;;;;;;5039909;28;20043;-68
2023/04/11 04:54:14;;;;;;;5.97;1.30;;;8.00;99.90;;;;;;5043432;28;20045;-68
2023/04/11 04:56:40;;;;;;;4.85;1.15;;;7.90;99.90;;;;;;5035051;28;20293;-68
2023/04/11 04:59:07;;;;;;;8.03;1.60;;;8.00;99.90;;;;;;5035645;28;20032;-67
2023/04/11 05:01:33;;;;;;;7.90;1.95;;;8.00;99.90;;;;;;5037816;28;20745;-69
2023/04/11 05:04:02;;;;;;;5.25;1.33;;;8.00;99.90;;;;;;5036012;28;20462;-69
2023/04/11 05:06:30;;;;;;;6.93;1.30;;;8.00;99.90;;;;;;5034858;28;20131;-70
2023/04/11 05:08:58;;;;;;;10.98;1.35;;;8.00;99.90;;;;;;5040992;28;20555;-71
2023/04/11 05:11:25;;;;;;;6.05;1.25;;;8.00;99.90;;;;;;5040420;28;20495;-75
2023/04/11 05:13:51;;;;;;;6.13;1.77;;;8.00;99.90;;;;;;5027598;28;20250;-69
2023/04/11 05:16:17;;;;;;;4.33;1.40;;;8.00;99.90;;;;;;5039772;28;20092;-78
2023/04/11 05:18:43;;;;;;;5.28;1.30;;;8.00;99.90;;;;;;5025741;28;20044;-78
2023/04/11 05:21:08;;;;;;;10.18;1.65;;;8.10;99.90;;;;;;5021176;28;20255;-69
2023/04/11 05:23:34;;;;;;;6.60;1.67;;;8.10;99.90;;;;;;5038633;28;20140;-72
2023/04/11 05:26:02;;;;;;;7.97;1.70;;;8.10;99.90;;;;;;5030937;28;20052;-67
2023/04/11 05:28:33;;;;;;;5.75;1.45;;;8.10;99.90;;;;;;5035674;28;20041;-69
2023/04/11 05:30:59;;;;;;;6.47;1.17;;;8.10;99.90;;;;;;5040601;28;20585;-73
2023/04/11 05:33:25;;;;;;;6.05;1.30;;;8.10;99.90;;;;;;5039134;28;20175;-77
2023/04/11 05:35:51;;;;;;;7.38;1.55;;;8.10;99.90;;;;;;5041841;28;20048;-73
2023/04/11 05:38:16;;;;;;;8.20;1.43;;;8.10;99.90;;;;;;5040009;28;20043;-72
2023/04/11 05:40:42;;;;;;;7.40;1.47;;;8.10;99.90;;;;;;5034412;28;20037;-68
2023/04/11 05:43:12;;;;;;;3.77;1.27;;;8.10;99.90;;;;;;5041472;28;20498;-69
2023/04/11 05:45:38;;;;;;;7.28;1.33;;;8.10;99.90;;;;;;5039879;28;20033;-74
2023/04/11 05:48:06;;;;;;;8.50;1.60;;;8.20;99.90;;;;;;5031362;28;20238;-69
2023/04/11 05:50:35;;;;;;;3.90;1.65;;;8.20;99.90;;;;;;5034768;28;20053;-70
2023/04/11 05:53:02;;;;;;;7.05;1.40;;;8.20;99.90;;;;;;5042000;28;20505;-76
2023/04/11 05:55:28;;;;;;;;;;;8.20;99.90;;;;;;5038514;28;20458;-67
2023/04/11 05:57:53;;;;;;;11.75;1.60;;;8.20;99.90;;;;;;5032511;28;19925;-67
2023/04/11 06:00:23;;;;;;;11.23;1.97;;;8.20;99.90;;;;;;5038903;28;20051;-68
2023/04/11 06:02:49;;;;;;;8.88;2.17;;;8.30;99.90;;;;;;5037090;28;20044;-67
2023/04/11 06:05:16;;;;;;;6.72;1.48;;;8.30;99.90;;;;;;5036046;28;20033;-67
2023/04/11 06:07:43;;;;;;;8.60;1.55;;;8.30;99.90;;;;;;5039162;28;20510;-73
2023/04/11 06:10:09;;;;;;;7.63;1.63;;;8.30;99.90;;;;;;5016473;28;20414;-68
2023/04/11 06:12:37;;;;;;;10.52;1.95;;;8.30;99.90;;;;;;5037015;28;20051;-67
2023/04/11 06:15:21;;;;;;;7.33;1.80;;;8.30;99.90;;;;;;5038615;28;20041;-68
2023/04/11 06:17:50;;;;;;;7.88;2.30;;;8.30;99.90;;;;;;5023551;28;20057;-68
2023/04/11 06:20:16;;;;;;;6.53;2.00;;;8.30;99.90;;;;;;5033319;28;20044;-68
2023/04/11 06:22:42;;;;;;;7.43;1.38;;;8.40;99.90;;;;;;5029064;28;20048;-68
2023/04/11 06:25:09;;;;;;;4.65;1.45;;;8.40;99.90;;;;;;5027835;28;20509;-68
2023/04/11 06:27:34;;;;;;;;;;;8.40;99.90;;;;;;5037361;28;20137;-68
2023/04/11 06:30:00;;;;;;;9.23;1.90;;;8.40;99.90;;;;;;5040094;28;19924;-71
2023/04/11 06:32:26;;;;;;;6.75;1.65;;;8.50;99.90;;;;;;5040254;28;20131;-68
2023/04/11 06:34:52;;;;;;;8.83;1.70;;;8.40;99.90;;;;;;5036075;28;20059;-68
2023/04/11 06:37:18;;;;;;;7.40;1.48;;;8.40;99.90;;;;;;5038618;28;20099;-68
2023/04/11 06:39:44;;;;;;;11.07;1.90;;;8.40;99.90;;;;;;5055491;28;20045;-68
2023/04/11 06:42:09;;;;;;;7.33;1.30;;;8.30;99.90;;;;;;5037546;28;20555;-68
2023/04/11 06:44:35;;;;;;;8.93;1.50;;;8.30;99.90;;;;;;5037597;28;20041;-68
2023/04/11 06:47:01;;;;;;;18.92;2.17;;;8.40;99.90;;;;;;5038727;28;20041;-68
2023/04/11 06:49:27;;;;;;;11.00;2.42;;;8.40;99.90;;;;;;5055320;28;20037;-67
2023/04/11 06:51:54;;;;;;;14.53;2.63;;;8.40;99.90;;;;;;5019133;28;20555;-68
2023/04/11 06:54:20;;;;;;;11.65;1.17;;;8.40;99.90;;;;;;5032822;28;20045;-68
2023/04/11 06:56:46;;;;;;;5.83;1.50;;;8.50;99.90;;;;;;5035901;28;20049;-67
2023/04/11 06:59:12;;;;;;;16.00;1.55;;;8.50;99.90;;;;;;5035672;28;20126;-67
2023/04/11 07:01:38;;;;;;;9.52;1.45;;;8.50;99.90;;;;;;5029437;28;20049;-68
2023/04/11 07:04:05;;;;;;;6.78;1.48;;;8.50;99.90;;;;;;5037482;28;20041;-68
2023/04/11 07:06:31;;;;;;;7.82;1.65;;;8.60;99.90;;;;;;5035961;28;20582;-68
2023/04/11 07:08:57;;;;;;;8.60;1.57;;;8.70;99.90;;;;;;5036052;28;20048;-68
2023/04/11 07:11:23;;;;;;;9.02;2.50;;;8.70;99.90;;;;;;5018325;28;20040;-68
2023/04/11 07:13:49;;;;;;;8.37;2.07;;;8.80;99.90;;;;;;5038332;28;20045;-68
2023/04/11 07:16:15;;;;;;;9.93;1.70;;;8.80;99.90;;;;;;5037035;28;20455;-68
2023/04/11 07:18:40;;;;;;;8.77;1.80;;;8.80;99.90;;;;;;5033427;28;20132;-68
2023/04/11 07:21:11;;;;;;;4.67;1.50;;;8.90;99.90;;;;;;5043683;28;20047;-68
2023/04/11 07:23:36;;;;;;;3.97;1.40;;;8.90;99.90;;;;;;5041499;28;20041;-67
2023/04/11 07:26:02;;;;;;;8.30;1.53;;;9.00;99.90;;;;;;5038340;28;20536;-68
2023/04/11 07:28:30;;;;;;;10.30;1.40;;;9.10;99.90;;;;;;5033879;28;20037;-68
2023/04/11 07:30:56;;;;;;;7.07;1.83;;;9.00;99.90;;;;;;5034912;28;20406;-68
2023/04/11 07:33:22;;;;;;;;;;;9.00;99.90;;;;;;5043294;28;20053;-68
2023/04/11 07:35:47;;;;;;;6.53;1.92;;;9.00;99.90;;;;;;5040690;28;19920;-67
2023/04/11 07:38:14;;;;;;;8.67;1.40;;;9.00;99.90;;;;;;5036132;28;20033;-67
2023/04/11 07:40:40;;;;;;;9.85;2.28;;;9.00;99.90;;;;;;5037586;28;20037;-68
2023/04/11 07:43:05;;;;;;;10.13;1.30;;;9.00;99.90;;;;;;5040239;28;20041;-67
2023/04/11 07:45:32;;;;;;;5.13;1.10;;;9.00;99.90;;;;;;5042913;28;20033;-68
2023/04/11 07:47:59;;;;;;;8.00;1.15;;;9.10;99.90;;;;;;5039006;28;20045;-67
2023/04/11 07:50:24;;;;;;;4.88;1.50;;;9.10;99.90;;;;;;5038127;28;20122;-67
2023/04/11 07:52:50;;;;;;;7.07;1.53;;;9.00;99.90;;;;;;5038164;28;20447;-68
2023/04/11 07:55:16;;;;;;;4.57;1.53;;;9.10;99.90;;;;;;5040679;28;20068;-68
2023/04/11 07:57:42;;;;;;;8.35;1.45;;;9.00;99.90;;;;;;5034236;28;20154;-67
2023/04/11 08:00:17;;;;;;;8.75;1.10;;;9.10;99.90;;;;;;5039328;28;20749;-67
2023/04/11 08:02:43;;;;;;;7.97;2.10;;;9.10;99.90;;;;;;5039685;28;20249;-67
2023/04/11 08:05:08;;;;;;;8.40;1.70;;;9.10;99.90;;;;;;5063386;22;20303;-82
2023/04/11 08:07:37;;;;;;;4.40;1.30;;;9.20;99.90;;;;;;5009918;28;20476;-82
2023/04/11 08:10:06;;;;;;;12.48;2.10;;;9.30;99.90;;;;;;5010855;28;20409;-82
2023/04/11 08:12:31;;;;;;;5.85;1.65;;;9.30;99.90;;;;;;5009879;28;20076;-82
2023/04/11 08:14:59;;;;;;;3.93;1.90;;;9.40;99.90;;;;;;4998190;28;20083;-82
2023/04/11 08:17:27;;;;;;;7.55;1.52;;;9.40;99.90;;;;;;5010762;28;20122;-82
2023/04/11 08:19:56;;;;;;;7.25;1.40;;;9.40;99.90;;;;;;5027550;28;20040;-82
2023/04/11 08:22:22;;;;;;;4.03;1.80;;;9.40;99.90;;;;;;5011088;28;20041;-81
2023/04/11 08:24:48;;;;;;;8.98;2.25;;;9.40;99.90;;;;;;5013757;28;20308;-81
2023/04/11 08:27:13;;;;;;;10.07;1.90;;;9.50;99.90;;;;;;5010031;28;20504;-81
2023/04/11 08:29:39;;;;;;;5.00;1.83;;;9.70;99.90;;;;;;4995671;28;20049;-80
2023/04/11 08:32:05;;;;;;;6.60;1.37;;;9.80;99.90;;;;;;4999514;28;20045;-82
2023/04/11 08:34:32;;;;;;;6.15;1.10;;;10.00;99.90;;;;;;4994395;28;20125;-82
2023/04/11 08:36:57;;;;;;;;;;;10.10;99.90;;;;;;5000367;28;20049;-82
2023/04/11 08:39:23;;;;;;;9.13;1.35;;;10.20;99.90;;;;;;5011567;28;19939;-82
2023/04/11 08:41:50;;;;;;;5.78;1.55;;;10.20;99.90;;;;;;5013290;28;20049;-83
2023/04/11 08:44:15;;;;;;;2.38;1.02;;;10.10;99.90;;;;;;5002303;28;20076;-83
2023/04/11 08:46:42;;;;;;;6.23;1.30;;;10.00;99.90;;;;;;5004743;28;20045;-84
2023/04/11 08:49:09;;;;;;;6.75;1.40;;;9.90;99.90;;;;;;4992685;28;20317;-84
2023/04/11 08:51:35;;;;;;;5.95;2.13;;;9.80;99.90;;;;;;5009509;28;20064;-85
2023/04/11 08:54:04;;;;;;;;;;;9.80;99.90;;;;;;5009349;28;20042;-84
2023/04/11 08:56:30;;;;;;;7.72;1.58;;;9.70;99.90;;;;;;4991386;28;19917;-84
2023/04/11 08:58:55;;;;;;;5.68;1.73;;;9.50;99.90;;;;;;5008274;28;20049;-84
2023/04/11 09:01:36;;;;;;;10.70;1.37;;;9.30;99.90;;;;;;5031253;28;20041;-84
2023/04/11 09:04:06;;;;;;;9.93;1.15;;;9.20;99.90;;;;;;5008275;28;20041;-84
2023/04/11 09:06:33;;;;;;;5.35;1.27;;;9.20;99.90;;;;;;4989259;28;20075;-85
2023/04/11 09:08:59;;;;;;;6.82;1.63;;;9.20;99.90;;;;;;5010670;28;21540;-84
2023/04/11 09:11:26;;;;;;;4.18;1.60;;;9.20;99.90;;;;;;4991149;28;20732;-83
2023/04/11 09:14:07;;;;;;;;;;;9.10;99.90;;;;;;5010159;28;20496;-83
2023/04/11 09:16:34;;;;;;;4.28;0.80;;;9.20;99.90;;;;;;5010161;28;19963;-84
2023/04/11 09:18:59;;;;;;;4.75;1.23;;;9.30;99.90;;;;;;5022594;28;20049;-84
2023/04/11 09:21:28;;;;;;;7.43;1.37;;;9.40;99.90;;;;;;5013120;28;20059;-84
2023/04/11 09:23:54;;;;;;;12.75;2.72;;;9.50;99.90;;;;;;5006424;28;20294;-84
2023/04/11 09:26:28;;;;;;;4.05;1.42;;;9.60;99.90;;;;;;4996686;28;20033;-84
2023/04/11 09:28:53;;;;;;;6.97;1.25;;;9.80;99.90;;;;;;4995409;28;20083;-84
2023/04/11 09:31:20;;;;;;;6.97;1.60;;;9.80;99.90;;;;;;5008574;28;20033;-84
2023/04/11 09:33:55;;;;;;;9.32;1.45;;;9.70;99.90;;;;;;5016005;28;20056;-85
2023/04/11 09:36:23;;;;;;;9.65;2.15;;;9.60;99.90;;;;;;4998674;28;20045;-84
2023/04/11 09:38:50;;;;;;;11.00;1.67;;;9.60;99.90;;;;;;5010922;28;20093;-84
2023/04/11 09:41:32;;;;;;;7.22;1.10;;;9.70;99.90;;;;;;5012773;28;20041;-83
2023/04/11 09:43:58;;;;;;;5.25;1.40;;;9.80;99.90;;;;;;4996836;28;20045;-84
2023/04/11 09:46:24;;;;;;;6.13;1.35;;;9.90;99.90;;;;;;5006202;28;20041;-83
2023/04/11 09:48:52;;;;;;;12.07;1.60;;;10.00;99.90;;;;;;4996920;28;20458;-84
2023/04/11 09:51:19;;;;;;;7.50;1.45;;;10.30;99.90;;;;;;5004925;28;20172;-84
2023/04/11 09:53:44;;;;;;;15.90;1.80;;;10.60;99.90;;;;;;5010709;28;20049;-84
2023/04/11 09:56:11;;;;;;;10.83;2.93;;;10.80;99.90;;;;;;4993139;28;20037;-83
2023/04/11 09:58:38;;;;;;;5.53;1.23;;;10.90;99.90;;;;;;5000050;28;20207;-82
2023/04/11 10:01:08;;;;;;;7.15;1.33;;;10.80;99.90;;;;;;5000772;28;20366;-84
2023/04/11 10:03:37;;;;;;;3.58;1.00;;;10.60;99.90;;;;;;5004704;28;20036;-84
2023/04/11 10:06:33;;;;;;;7.95;1.20;;;10.50;99.90;;;;;;5013242;28;20076;-82
2023/04/11 10:09:09;;;;;;;5.90;1.10;;;10.20;99.90;;;;;;4998376;28;20081;-81
2023/04/11 10:11:35;;;;;;;2.40;0.70;;;9.80;99.90;;;;;;4995863;28;20038;-82
2023/04/11 10:14:01;;;;;;;9.15;0.85;;;9.30;99.90;;;;;;5009837;28;20067;-82
2023/04/11 10:16:30;;;;;;;2.97;0.93;;;9.00;99.90;;;;;;4997283;28;20079;-84
2023/04/11 10:18:55;;;;;;;4.45;0.73;;;8.70;99.90;;;;;;4988117;28;20061;-84
2023/04/11 10:21:33;;;;;;;2.07;0.63;;;8.50;99.90;;;;;;5015227;28;20288;-84
2023/04/11 10:24:13;;;;;;;7.00;0.93;;;8.40;99.90;;;;;;5014317;28;20303;-84
2023/04/11 10:27:11;;;;;;;6.70;0.98;;;8.30;99.90;;;;;;4991209;28;20037;-84
2023/04/11 10:29:47;;;;;;;5.47;1.23;;;8.30;99.90;;;;;;4966695;28;20049;-84
2023/04/11 10:32:17;;;;;;;6.18;0.80;;;8.50;99.90;;;;;;4995279;28;20450;-83
2023/04/11 10:34:49;;;;;;;8.15;1.30;;;8.60;99.90;;;;;;4998207;28;20045;-82
2023/04/11 10:37:31;;;;;;;5.32;0.98;;;8.60;99.90;;;;;;5004113;28;20048;-83
2023/04/11 10:39:59;;;;;;;6.18;1.10;;;8.60;99.90;;;;;;5005307;28;20049;-85
2023/04/11 10:42:40;;;;;;;6.40;1.15;;;8.50;99.90;;;;;;5008024;28;20044;-83
2023/04/11 10:45:12;;;;;;;2.65;0.80;;;8.30;99.90;;;;;;5027650;28;20175;-84
2023/04/11 10:47:38;;;;;;;2.97;1.00;;;8.10;99.90;;;;;;4996123;28;20037;-85
2023/04/11 10:50:27;;;;;;;10.65;1.00;;;7.90;99.90;;;;;;4995063;28;20895;-84
2023/04/11 10:52:55;;;;;;;3.67;1.17;;;7.70;99.90;;;;;;5006180;28;20564;-85
2023/04/11 10:55:23;;;;;;;3.67;0.88;;;7.60;99.90;;;;;;4987100;28;20038;-86
2023/04/11 10:58:13;;;;;;;2.60;0.80;;;7.50;99.90;;;;;;5002981;28;20041;-85
2023/04/11 11:00:50;;;;;;;1.88;0.77;;;7.40;99.90;;;;;;5014397;28;20124;-85
2023/04/11 11:03:25;;;;;;;2.28;0.70;;;7.30;99.90;;;;;;5009109;28;20044;-84
2023/04/11 11:05:59;;;;;;;5.22;1.40;;;7.30;99.90;;;;;;5026311;28;20539;-84
2023/04/11 11:08:29;;;;;;;9.18;1.65;;;7.40;99.90;;;;;;4996218;28;20389;-85
2023/04/11 11:11:03;;;;;;;7.60;1.25;;;7.40;99.90;;;;;;5002146;28;20379;-85
2023/04/11 11:13:55;;;;;;;7.35;1.38;;;7.40;99.90;;;;;;4995896;28;20048;-85
2023/04/11 11:16:22;;;;;;;4.95;0.70;;;7.30;99.90;;;;;;5031678;28;20068;-85
2023/04/11 11:18:51;;;;;;;2.75;0.95;;;7.30;99.90;;;;;;5011927;28;20041;-84
2023/04/11 11:21:19;;;;;;;5.30;1.05;;;7.30;99.90;;;;;;4988014;28;20386;-85
2023/04/11 11:24:01;;;;;;;3.70;1.17;;;7.30;99.90;;;;;;4994606;28;20054;-85
2023/04/11 11:26:36;;;;;;;8.15;1.63;;;7.40;99.90;;;;;;5009231;28;20137;-85
2023/04/11 11:29:04;;;;;;;8.93;1.30;;;7.40;99.90;;;;;;5006565;28;20042;-85
2023/04/11 11:31:46;;;;;;;9.75;1.35;;;7.60;99.90;;;;;;5008021;28;20047;-85
2023/04/11 11:34:13;;;;;;;10.05;1.77;;;7.70;99.90;;;;;;5006454;28;20124;-85
2023/04/11 11:36:55;;;;;;;6.75;1.88;;;7.90;99.90;;;;;;4992628;28;20493;-84
2023/04/11 11:39:23;;;;;;;7.03;1.48;;;8.00;99.90;;;;;;4996140;28;20851;-82
2023/04/11 11:41:52;;;;;;;6.25;1.30;;;8.20;99.90;;;;;;4991876;28;20045;-85
2023/04/11 11:44:29;;;;;;;10.02;1.65;;;8.40;99.90;;;;;;4986318;28;20056;-86
2023/04/11 11:47:13;;;;;;;5.05;1.38;;;8.60;99.90;;;;;;5005022;28;20046;-85
2023/04/11 11:49:55;;;;;;;9.60;1.50;;;8.70;99.90;;;;;;5005397;28;20041;-85
2023/04/11 11:52:35;;;;;;;8.15;2.50;;;9.10;99.90;;;;;;5000011;28;20419;-86
2023/04/11 11:55:04;;;;;;;17.20;2.17;;;9.40;99.90;;;;;;5009812;28;20498;-85
2023/04/11 11:57:37;;;;;;;8.23;1.92;;;9.60;99.90;;;;;;4994931;28;20465;-85
2023/04/11 12:00:11;;;;;;;6.75;1.73;;;9.60;99.90;;;;;;5004631;28;20049;-84
2023/04/11 12:02:38;;;;;;;12.18;2.00;;;9.70;99.90;;;;;;4998723;28;20085;-85
2023/04/11 12:05:05;;;;;;;;;;;9.60;99.90;;;;;;5011628;28;20045;-83
2023/04/11 12:07:35;;;;;;;9.75;1.85;;;9.70;99.90;;;;;;5011988;28;19931;-85
2023/04/11 12:10:12;;;;;;;11.05;2.90;;;9.90;99.90;;;;;;4994312;28;20049;-85
2023/04/11 12:12:43;;;;;;;6.80;1.48;;;10.00;99.90;;;;;;4994986;28;20038;-85
2023/04/11 12:15:24;;;;;;;5.45;1.10;;;10.00;99.90;;;;;;5014284;28;20502;-85
2023/04/11 12:17:53;;;;;;;6.28;1.40;;;10.00;99.90;;;;;;5005059;28;20078;-83
2023/04/11 12:20:23;;;;;;;5.30;2.08;;;9.90;99.90;;;;;;5003347;28;20083;-85
2023/04/11 12:22:55;;;;;;;7.60;1.38;;;9.90;99.90;;;;;;5027002;28;20117;-85
2023/04/11 12:25:21;;;;;;;9.55;1.80;;;9.80;99.90;;;;;;5008724;28;20037;-85
2023/04/11 12:27:47;;;;;;;8.50;1.35;;;9.80;99.90;;;;;;4989142;28;20049;-84
2023/04/11 12:30:16;;;;;;;6.80;1.33;;;9.90;99.90;;;;;;4998182;28;20120;-84
2023/04/11 12:32:46;;;;;;;7.22;1.98;;;10.00;99.90;;;;;;5028290;28;20263;-84
2023/04/11 12:35:25;;;;;;;11.32;1.73;;;10.00;99.90;;;;;;4995370;28;20702;-85
2023/04/11 12:37:51;;;;;;;6.95;1.58;;;10.00;99.90;;;;;;5008048;28;20045;-83
2023/04/11 12:40:19;;;;;;;6.43;1.77;;;9.90;99.90;;;;;;5002487;28;20492;-84
2023/04/11 12:42:48;;;;;;;11.90;1.20;;;10.00;99.90;;;;;;4990427;28;20107;-84
2023/04/11 12:45:15;;;;;;;6.80;1.73;;;10.00;99.90;;;;;;4992734;28;20041;-82
2023/04/11 12:47:42;;;;;;;4.90;1.40;;;10.10;99.90;;;;;;5020794;28;20041;-84
2023/04/11 12:50:10;;;;;;;8.40;0.88;;;10.20;99.90;;;;;;5014324;28;20045;-84
2023/04/11 12:52:36;;;;;;;7.47;1.20;;;10.40;99.90;;;;;;5006828;28;20273;-83
2023/04/11 12:55:03;;;;;;;8.52;2.00;;;10.60;99.90;;;;;;5013147;28;20601;-85
2023/04/11 12:57:31;;;;;;;6.93;1.52;;;10.80;99.90;;;;;;5024969;28;20102;-85
2023/04/11 12:59:56;;;;;;;7.68;1.50;;;10.90;99.90;;;;;;4992635;28;20037;-84
2023/04/11 13:02:24;;;;;;;3.70;1.30;;;10.80;99.90;;;;;;5029028;28;20049;-84
2023/04/11 13:04:52;;;;;;;4.97;1.55;;;10.70;99.90;;;;;;5019469;28;20052;-84
2023/04/11 13:07:18;;;;;;;11.27;1.38;;;10.50;99.90;;;;;;5005138;28;20326;-84